sensor_id;sensor_type;location;lat;lon;timestamp;pressure;altitude;pressure_sealevel;temperature;humidity
77216;BME280;66210;53.282;9.864;2023-04-08T00:01:35;101778.00;;;5.16;80.74
77216;BME280;66210;53.282;9.864;2023-04-08T00:04:02;101780.75;;;5.19;80.37
77216;BME280;66210;53.282;9.864;2023-04-08T00:06:29;101786.94;;;5.23;80.38
77216;BME280;66210;53.282;9.864;2023-04-08T00:08:57;101788.84;;;5.25;80.60
77216;BME280;66210;53.282;9.864;2023-04-08T00:11:23;101791.22;;;5.24;80.41
77216;BME280;66210;53.282;9.864;2023-04-08T00:13:50;101793.59;;;5.22;80.85
77216;BME280;66210;53.282;9.864;2023-04-08T00:16:17;101796.75;;;5.19;81.11
77216;BME280;66210;53.282;9.864;2023-04-08T00:18:43;101802.56;;;5.18;80.89
77216;BME280;66210;53.282;9.864;2023-04-08T00:21:10;101797.38;;;5.17;80.97
77216;BME280;66210;53.282;9.864;2023-04-08T00:23:37;101799.66;;;5.14;81.40
77216;BME280;66210;53.282;9.864;2023-04-08T00:26:03;101802.16;;;5.14;81.23
77216;BME280;66210;53.282;9.864;2023-04-08T00:28:30;101797.84;;;5.13;81.38
77216;BME280;66210;53.282;9.864;2023-04-08T00:30:57;101802.28;;;5.15;81.20
77216;BME280;66210;53.282;9.864;2023-04-08T00:33:24;101800.75;;;5.17;81.76
77216;BME280;66210;53.282;9.864;2023-04-08T00:35:51;101805.94;;;5.19;81.36
77216;BME280;66210;53.282;9.864;2023-04-08T00:38:18;101803.56;;;5.20;81.32
77216;BME280;66210;53.282;9.864;2023-04-08T00:40:44;101802.56;;;5.18;81.78
77216;BME280;66210;53.282;9.864;2023-04-08T00:43:11;101810.09;;;5.18;81.83
77216;BME280;66210;53.282;9.864;2023-04-08T00:45:38;101810.59;;;5.14;82.41
77216;BME280;66210;53.282;9.864;2023-04-08T00:48:04;101817.28;;;5.14;82.55
77216;BME280;66210;53.282;9.864;2023-04-08T00:50:31;101814.63;;;5.12;82.18
77216;BME280;66210;53.282;9.864;2023-04-08T00:52:58;101807.19;;;5.14;82.22
77216;BME280;66210;53.282;9.864;2023-04-08T00:55:25;101811.47;;;5.15;82.43
77216;BME280;66210;53.282;9.864;2023-04-08T00:57:52;101819.16;;;5.16;82.26
77216;BME280;66210;53.282;9.864;2023-04-08T01:00:19;101802.16;;;5.14;82.49
77216;BME280;66210;53.282;9.864;2023-04-08T01:08:18;101805.81;;;5.17;82.20
77216;BME280;66210;53.282;9.864;2023-04-08T01:10:50;101805.06;;;5.18;81.86
77216;BME280;66210;53.282;9.864;2023-04-08T01:13:19;101801.69;;;5.18;82.74
77216;BME280;66210;53.282;9.864;2023-04-08T01:15:49;101804.94;;;5.17;82.99
77216;BME280;66210;53.282;9.864;2023-04-08T01:18:16;101802.56;;;5.18;82.73
77216;BME280;66210;53.282;9.864;2023-04-08T01:20:44;101808.59;;;5.20;82.79
77216;BME280;66210;53.282;9.864;2023-04-08T01:23:36;101806.97;;;5.21;82.44
77216;BME280;66210;53.282;9.864;2023-04-08T01:26:04;101806.19;;;5.22;82.01
77216;BME280;66210;53.282;9.864;2023-04-08T01:28:32;101797.91;;;5.23;81.80
77216;BME280;66210;53.282;9.864;2023-04-08T01:31:01;101803.94;;;5.25;82.31
77216;BME280;66210;53.282;9.864;2023-04-08T01:33:30;101802.16;;;5.24;83.10
77216;BME280;66210;53.282;9.864;2023-04-08T01:35:57;101802.94;;;5.23;82.61
77216;BME280;66210;53.282;9.864;2023-04-08T01:38:26;101801.16;;;5.22;82.51
77216;BME280;66210;53.282;9.864;2023-04-08T01:40:54;101805.47;;;5.23;81.98
77216;BME280;66210;53.282;9.864;2023-04-08T01:43:21;101800.56;;;5.25;82.36
77216;BME280;66210;53.282;9.864;2023-04-08T01:45:49;101798.03;;;5.25;82.58
77216;BME280;66210;53.282;9.864;2023-04-08T01:48:20;101779.00;;;5.28;82.36
77216;BME280;66210;53.282;9.864;2023-04-08T01:50:48;101777.63;;;5.32;81.92
77216;BME280;66210;53.282;9.864;2023-04-08T01:53:15;101782.91;;;5.35;81.76
77216;BME280;66210;53.282;9.864;2023-04-08T01:55:42;101777.25;;;5.37;81.83
77216;BME280;66210;53.282;9.864;2023-04-08T01:58:11;101774.00;;;5.38;82.17
77216;BME280;66210;53.282;9.864;2023-04-08T02:00:43;101776.75;;;5.41;82.05
77216;BME280;66210;53.282;9.864;2023-04-08T02:03:11;101766.91;;;5.45;81.80
77216;BME280;66210;53.282;9.864;2023-04-08T02:05:39;101765.31;;;5.45;81.80
77216;BME280;66210;53.282;9.864;2023-04-08T02:08:06;101761.28;;;5.47;81.85
77216;BME280;66210;53.282;9.864;2023-04-08T02:10:32;101757.09;;;5.48;81.36
77216;BME280;66210;53.282;9.864;2023-04-08T02:12:59;101763.16;;;5.50;81.87
77216;BME280;66210;53.282;9.864;2023-04-08T02:15:32;101759.88;;;5.51;82.06
77216;BME280;66210;53.282;9.864;2023-04-08T02:18:06;101759.88;;;5.51;82.30
77216;BME280;66210;53.282;9.864;2023-04-08T02:20:44;101763.25;;;5.51;82.29
77216;BME280;66210;53.282;9.864;2023-04-08T02:25:42;101769.72;;;5.48;82.31
77216;BME280;66210;53.282;9.864;2023-04-08T02:28:10;101778.91;;;5.47;82.56
77216;BME280;66210;53.282;9.864;2023-04-08T02:30:41;101778.78;;;5.46;82.39
77216;BME280;66210;53.282;9.864;2023-04-08T02:33:10;101777.91;;;5.45;82.75
77216;BME280;66210;53.282;9.864;2023-04-08T02:35:39;101782.03;;;5.45;82.48
77216;BME280;66210;53.282;9.864;2023-04-08T02:38:06;101774.47;;;5.45;82.42
77216;BME280;66210;53.282;9.864;2023-04-08T02:40:33;101777.13;;;5.46;82.53
77216;BME280;66210;53.282;9.864;2023-04-08T02:43:00;101771.06;;;5.44;82.61
77216;BME280;66210;53.282;9.864;2023-04-08T02:45:32;101765.16;;;5.44;82.70
77216;BME280;66210;53.282;9.864;2023-04-08T02:48:01;101766.81;;;5.43;82.34
77216;BME280;66210;53.282;9.864;2023-04-08T02:50:28;101778.63;;;5.44;82.79
77216;BME280;66210;53.282;9.864;2023-04-08T02:52:55;101775.00;;;5.40;83.32
77216;BME280;66210;53.282;9.864;2023-04-08T02:55:21;101779.13;;;5.40;83.81
77216;BME280;66210;53.282;9.864;2023-04-08T02:57:48;101777.25;;;5.37;83.74
77216;BME280;66210;53.282;9.864;2023-04-08T03:00:15;101778.00;;;5.36;83.24
77216;BME280;66210;53.282;9.864;2023-04-08T03:02:42;101775.22;;;5.33;84.09
77216;BME280;66210;53.282;9.864;2023-04-08T03:05:09;101770.19;;;5.33;83.37
77216;BME280;66210;53.282;9.864;2023-04-08T03:07:36;101776.13;;;5.34;83.72
77216;BME280;66210;53.282;9.864;2023-04-08T03:10:04;101784.56;;;5.34;83.82
77216;BME280;66210;53.282;9.864;2023-04-08T03:12:31;101794.00;;;5.37;83.66
77216;BME280;66210;53.282;9.864;2023-04-08T03:14:58;101788.97;;;5.37;83.18
77216;BME280;66210;53.282;9.864;2023-04-08T03:17:25;101795.75;;;5.38;82.98
77216;BME280;66210;53.282;9.864;2023-04-08T03:19:52;101800.81;;;5.38;83.79
77216;BME280;66210;53.282;9.864;2023-04-08T03:22:19;101801.44;;;5.35;83.70
77216;BME280;66210;53.282;9.864;2023-04-08T03:24:45;101802.06;;;5.33;83.64
77216;BME280;66210;53.282;9.864;2023-04-08T03:27:12;101800.81;;;5.28;84.61
77216;BME280;66210;53.282;9.864;2023-04-08T03:29:39;101809.25;;;5.28;83.86
77216;BME280;66210;53.282;9.864;2023-04-08T03:32:06;101798.28;;;5.28;83.71
77216;BME280;66210;53.282;9.864;2023-04-08T03:34:33;101808.50;;;5.29;83.44
77216;BME280;66210;53.282;9.864;2023-04-08T03:37:01;101802.56;;;5.29;83.30
77216;BME280;66210;53.282;9.864;2023-04-08T03:39:27;101811.25;;;5.32;84.48
77216;BME280;66210;53.282;9.864;2023-04-08T03:41:54;101810.25;;;5.30;83.80
77216;BME280;66210;53.282;9.864;2023-04-08T03:44:21;101812.53;;;5.27;84.77
77216;BME280;66210;53.282;9.864;2023-04-08T03:46:48;101803.81;;;5.24;84.69
77216;BME280;66210;53.282;9.864;2023-04-08T03:49:14;101793.00;;;5.25;84.55
77216;BME280;66210;53.282;9.864;2023-04-08T03:51:41;101798.03;;;5.25;84.55
77216;BME280;66210;53.282;9.864;2023-04-08T03:54:08;101799.66;;;5.24;83.85
77216;BME280;66210;53.282;9.864;2023-04-08T03:56:35;101800.03;;;5.29;84.24
77216;BME280;66210;53.282;9.864;2023-04-08T03:59:01;101806.09;;;5.31;83.93
77216;BME280;66210;53.282;9.864;2023-04-08T04:01:28;101802.56;;;5.29;83.79
77216;BME280;66210;53.282;9.864;2023-04-08T04:03:57;101803.72;;;5.32;84.08
77216;BME280;66210;53.282;9.864;2023-04-08T04:06:24;101813.16;;;5.35;83.83
77216;BME280;66210;53.282;9.864;2023-04-08T04:08:52;101804.09;;;5.37;84.08
77216;BME280;66210;53.282;9.864;2023-04-08T04:11:20;101811.50;;;5.35;84.35
77216;BME280;66210;53.282;9.864;2023-04-08T04:13:48;101823.22;;;5.35;83.74
77216;BME280;66210;53.282;9.864;2023-04-08T04:16:14;101821.50;;;5.34;83.94
77216;BME280;66210;53.282;9.864;2023-04-08T04:18:41;101826.63;;;5.35;84.04
77216;BME280;66210;53.282;9.864;2023-04-08T04:21:08;101822.50;;;5.36;83.71
77216;BME280;66210;53.282;9.864;2023-04-08T04:23:35;101814.03;;;5.35;83.86
77216;BME280;66210;53.282;9.864;2023-04-08T04:26:07;101822.59;;;5.37;84.16
77216;BME280;66210;53.282;9.864;2023-04-08T04:28:34;101830.94;;;5.36;83.66
77216;BME280;66210;53.282;9.864;2023-04-08T04:31:01;101836.09;;;5.38;84.00
77216;BME280;66210;53.282;9.864;2023-04-08T04:33:28;101831.69;;;5.35;84.13
77216;BME280;66210;53.282;9.864;2023-04-08T04:35:55;101835.09;;;5.36;83.83
77216;BME280;66210;53.282;9.864;2023-04-08T04:38:22;101843.41;;;5.35;83.86
77216;BME280;66210;53.282;9.864;2023-04-08T04:40:48;101847.28;;;5.31;84.63
77216;BME280;66210;53.282;9.864;2023-04-08T04:43:15;101849.69;;;5.30;84.31
77216;BME280;66210;53.282;9.864;2023-04-08T04:45:41;101851.19;;;5.28;84.29
77216;BME280;66210;53.282;9.864;2023-04-08T04:48:09;101851.19;;;5.28;84.56
77216;BME280;66210;53.282;9.864;2023-04-08T04:50:35;101858.00;;;5.29;84.43
77216;BME280;66210;53.282;9.864;2023-04-08T04:53:02;101850.94;;;5.25;84.52
77216;BME280;66210;53.282;9.864;2023-04-08T04:55:28;101858.38;;;5.23;84.57
77216;BME280;66210;53.282;9.864;2023-04-08T04:57:55;101862.38;;;5.21;84.99
77216;BME280;66210;53.282;9.864;2023-04-08T05:00:21;101858.22;;;5.21;84.67
77216;BME280;66210;53.282;9.864;2023-04-08T05:02:48;101861.75;;;5.24;84.13
77216;BME280;66210;53.282;9.864;2023-04-08T05:05:14;101851.81;;;5.25;84.18
77216;BME280;66210;53.282;9.864;2023-04-08T05:07:41;101851.06;;;5.26;84.29
77216;BME280;66210;53.282;9.864;2023-04-08T05:10:08;101853.97;;;5.31;83.99
77216;BME280;66210;53.282;9.864;2023-04-08T05:12:36;101863.16;;;5.30;84.32
77216;BME280;66210;53.282;9.864;2023-04-08T05:15:04;101859.78;;;5.30;84.22
77216;BME280;66210;53.282;9.864;2023-04-08T05:17:31;101866.56;;;5.31;83.76
77216;BME280;66210;53.282;9.864;2023-04-08T05:19:58;101866.72;;;5.32;83.97
77216;BME280;66210;53.282;9.864;2023-04-08T05:22:25;101872.63;;;5.33;83.91
77216;BME280;66210;53.282;9.864;2023-04-08T05:24:51;101873.38;;;5.32;83.81
77216;BME280;66210;53.282;9.864;2023-04-08T05:27:18;101876.66;;;5.31;84.14
77216;BME280;66210;53.282;9.864;2023-04-08T05:29:44;101876.41;;;5.28;84.83
77216;BME280;66210;53.282;9.864;2023-04-08T05:32:11;101876.75;;;5.22;84.98
77216;BME280;66210;53.282;9.864;2023-04-08T05:34:37;101881.38;;;5.17;84.92
77216;BME280;66210;53.282;9.864;2023-04-08T05:37:04;101889.72;;;5.16;85.39
77216;BME280;66210;53.282;9.864;2023-04-08T05:39:30;101890.34;;;5.14;85.40
77216;BME280;66210;53.282;9.864;2023-04-08T05:41:57;101905.16;;;5.11;85.18
77216;BME280;66210;53.282;9.864;2023-04-08T05:44:23;101900.22;;;5.02;86.21
77216;BME280;66210;53.282;9.864;2023-04-08T05:46:50;101899.06;;;4.98;86.67
77216;BME280;66210;53.282;9.864;2023-04-08T05:49:16;101899.69;;;4.96;86.83
77216;BME280;66210;53.282;9.864;2023-04-08T05:51:43;101908.00;;;4.95;86.59
77216;BME280;66210;53.282;9.864;2023-04-08T05:54:10;101900.44;;;4.95;86.51
77216;BME280;66210;53.282;9.864;2023-04-08T05:56:36;101901.19;;;4.94;86.89
77216;BME280;66210;53.282;9.864;2023-04-08T05:59:03;101899.41;;;4.93;86.78
77216;BME280;66210;53.282;9.864;2023-04-08T06:01:30;101904.34;;;4.91;86.83
77216;BME280;66210;53.282;9.864;2023-04-08T06:03:56;101906.97;;;4.93;86.90
77216;BME280;66210;53.282;9.864;2023-04-08T06:06:23;101902.84;;;4.93;86.79
77216;BME280;66210;53.282;9.864;2023-04-08T06:08:51;101913.03;;;4.95;86.52
77216;BME280;66210;53.282;9.864;2023-04-08T06:11:18;101913.03;;;4.95;87.25
77216;BME280;66210;53.282;9.864;2023-04-08T06:13:44;101913.91;;;4.95;87.15
77216;BME280;66210;53.282;9.864;2023-04-08T06:16:12;101925.38;;;4.92;87.76
77216;BME280;66210;53.282;9.864;2023-04-08T06:18:39;101923.56;;;4.91;87.33
77216;BME280;66210;53.282;9.864;2023-04-08T06:21:06;101924.47;;;4.91;87.26
77216;BME280;66210;53.282;9.864;2023-04-08T06:23:33;101922.69;;;4.90;87.65
77216;BME280;66210;53.282;9.864;2023-04-08T06:25:59;101932.78;;;4.90;87.87
77216;BME280;66210;53.282;9.864;2023-04-08T06:28:28;101932.91;;;4.92;87.13
77216;BME280;66210;53.282;9.864;2023-04-08T06:30:56;101936.31;;;4.92;87.68
77216;BME280;66210;53.282;9.864;2023-04-08T06:33:23;101939.59;;;4.91;88.39
77216;BME280;66210;53.282;9.864;2023-04-08T06:35:49;101933.38;;;4.88;88.47
77216;BME280;66210;53.282;9.864;2023-04-08T06:38:16;101939.91;;;4.86;88.63
77216;BME280;66210;53.282;9.864;2023-04-08T06:40:43;101942.44;;;4.86;88.41
77216;BME280;66210;53.282;9.864;2023-04-08T06:43:10;101937.56;;;4.87;88.72
77216;BME280;66210;53.282;9.864;2023-04-08T06:45:36;101952.66;;;4.87;88.54
77216;BME280;66210;53.282;9.864;2023-04-08T06:48:03;101950.13;;;4.87;88.72
77216;BME280;66210;53.282;9.864;2023-04-08T06:50:30;101946.59;;;4.85;88.71
77216;BME280;66210;53.282;9.864;2023-04-08T06:52:57;101949.59;;;4.81;89.32
77216;BME280;66210;53.282;9.864;2023-04-08T06:55:24;101951.38;;;4.82;89.01
77216;BME280;66210;53.282;9.864;2023-04-08T06:57:50;101956.69;;;4.85;89.00
77216;BME280;66210;53.282;9.864;2023-04-08T07:00:17;101960.47;;;4.90;88.94
77216;BME280;66210;53.282;9.864;2023-04-08T07:02:44;101962.38;;;4.93;88.60
77216;BME280;66210;53.282;9.864;2023-04-08T07:05:11;101967.97;;;4.99;88.61
77216;BME280;66210;53.282;9.864;2023-04-08T07:07:39;101964.09;;;5.03;88.40
77216;BME280;66210;53.282;9.864;2023-04-08T07:10:06;101966.47;;;5.01;88.61
77216;BME280;66210;53.282;9.864;2023-04-08T07:12:36;101970.00;;;5.03;89.10
77216;BME280;66210;53.282;9.864;2023-04-08T07:15:03;101974.28;;;5.04;88.85
77216;BME280;66210;53.282;9.864;2023-04-08T07:17:30;101968.50;;;5.05;88.51
77216;BME280;66210;53.282;9.864;2023-04-08T07:19:58;101972.31;;;5.10;88.03
77216;BME280;66210;53.282;9.864;2023-04-08T07:22:24;101969.16;;;5.13;88.06
77216;BME280;66210;53.282;9.864;2023-04-08T07:24:52;101957.88;;;5.18;88.11
77216;BME280;66210;53.282;9.864;2023-04-08T07:27:18;101964.34;;;5.25;88.15
77216;BME280;66210;53.282;9.864;2023-04-08T07:29:45;101976.56;;;5.30;87.22
77216;BME280;66210;53.282;9.864;2023-04-08T07:32:12;101970.91;;;5.33;87.56
77216;BME280;66210;53.282;9.864;2023-04-08T07:34:39;101972.69;;;5.34;87.94
77216;BME280;66210;53.282;9.864;2023-04-08T07:37:06;101974.03;;;5.30;87.52
77216;BME280;66210;53.282;9.864;2023-04-08T07:39:33;101973.28;;;5.31;87.48
77216;BME280;66210;53.282;9.864;2023-04-08T07:41:59;101978.94;;;5.29;87.30
77216;BME280;66210;53.282;9.864;2023-04-08T07:44:27;101982.97;;;5.27;87.85
77216;BME280;66210;53.282;9.864;2023-04-08T07:46:53;101981.06;;;5.24;87.15
77216;BME280;66210;53.282;9.864;2023-04-08T07:49:21;101985.78;;;5.30;87.76
77216;BME280;66210;53.282;9.864;2023-04-08T07:51:48;101988.91;;;5.27;87.60
77216;BME280;66210;53.282;9.864;2023-04-08T07:54:15;101995.56;;;5.27;87.44
77216;BME280;66210;53.282;9.864;2023-04-08T07:56:43;101998.22;;;5.28;87.25
77216;BME280;66210;53.282;9.864;2023-04-08T07:59:10;101990.03;;;5.31;87.53
77216;BME280;66210;53.282;9.864;2023-04-08T08:01:38;101998.16;;;5.37;87.36
77216;BME280;66210;53.282;9.864;2023-04-08T08:04:05;102004.59;;;5.44;86.75
77216;BME280;66210;53.282;9.864;2023-04-08T08:06:32;101995.41;;;5.44;86.57
77216;BME280;66210;53.282;9.864;2023-04-08T08:08:59;101999.16;;;5.39;86.82
77216;BME280;66210;53.282;9.864;2023-04-08T08:11:26;102006.59;;;5.37;87.32
77216;BME280;66210;53.282;9.864;2023-04-08T08:13:55;102012.91;;;5.42;86.77
77216;BME280;66210;53.282;9.864;2023-04-08T08:16:22;102005.34;;;5.42;86.96
77216;BME280;66210;53.282;9.864;2023-04-08T08:18:52;102016.44;;;5.45;86.89
77216;BME280;66210;53.282;9.864;2023-04-08T08:21:19;102003.84;;;5.45;86.18
77216;BME280;66210;53.282;9.864;2023-04-08T08:23:46;102005.78;;;5.47;86.27
77216;BME280;66210;53.282;9.864;2023-04-08T08:26:13;102005.47;;;5.44;86.21
77216;BME280;66210;53.282;9.864;2023-04-08T08:28:39;102009.03;;;5.46;86.20
77216;BME280;66210;53.282;9.864;2023-04-08T08:31:06;102012.41;;;5.47;86.75
77216;BME280;66210;53.282;9.864;2023-04-08T08:33:33;102012.16;;;5.44;86.56
77216;BME280;66210;53.282;9.864;2023-04-08T08:36:00;102019.72;;;5.44;86.86
77216;BME280;66210;53.282;9.864;2023-04-08T08:38:27;102023.19;;;5.35;86.79
77216;BME280;66210;53.282;9.864;2023-04-08T08:40:55;102025.47;;;5.32;87.02
77216;BME280;66210;53.282;9.864;2023-04-08T08:43:23;102025.31;;;5.31;86.80
77216;BME280;66210;53.282;9.864;2023-04-08T08:45:51;102024.84;;;5.35;86.74
77216;BME280;66210;53.282;9.864;2023-04-08T08:48:18;102026.63;;;5.36;86.60
77216;BME280;66210;53.282;9.864;2023-04-08T08:50:45;102037.13;;;5.40;87.25
77216;BME280;66210;53.282;9.864;2023-04-08T08:53:12;102031.16;;;5.40;87.33
77216;BME280;66210;53.282;9.864;2023-04-08T08:55:38;102038.41;;;5.46;86.54
77216;BME280;66210;53.282;9.864;2023-04-08T08:58:26;102035.25;;;5.48;87.19
77216;BME280;66210;53.282;9.864;2023-04-08T09:00:54;102034.91;;;5.54;87.44
77216;BME280;66210;53.282;9.864;2023-04-08T09:03:22;102037.06;;;5.59;86.70
77216;BME280;66210;53.282;9.864;2023-04-08T09:05:51;102040.84;;;5.65;87.01
77216;BME280;66210;53.282;9.864;2023-04-08T09:11:18;102047.63;;;5.84;86.04
77216;BME280;66210;53.282;9.864;2023-04-08T09:13:47;102041.78;;;5.94;85.59
77216;BME280;66210;53.282;9.864;2023-04-08T09:16:17;102049.50;;;6.06;85.57
77216;BME280;66210;53.282;9.864;2023-04-08T09:18:46;102055.22;;;6.24;85.03
77216;BME280;66210;53.282;9.864;2023-04-08T09:21:16;102056.63;;;6.31;84.77
77216;BME280;66210;53.282;9.864;2023-04-08T09:23:48;102057.53;;;6.41;84.70
77216;BME280;66210;53.282;9.864;2023-04-08T09:26:18;102054.28;;;6.53;84.00
77216;BME280;66210;53.282;9.864;2023-04-08T09:29:06;102059.22;;;6.61;83.38
77216;BME280;66210;53.282;9.864;2023-04-08T09:32:00;102058.69;;;6.65;83.01
77216;BME280;66210;53.282;9.864;2023-04-08T09:34:28;102064.75;;;6.68;82.47
77216;BME280;66210;53.282;9.864;2023-04-08T09:36:57;102058.56;;;6.64;82.30
77216;BME280;66210;53.282;9.864;2023-04-08T09:39:26;102060.47;;;6.66;82.47
77216;BME280;66210;53.282;9.864;2023-04-08T09:41:57;102054.91;;;6.60;81.82
77216;BME280;66210;53.282;9.864;2023-04-08T09:44:27;102066.00;;;6.62;82.32
77216;BME280;66210;53.282;9.864;2023-04-08T09:47:00;102067.53;;;6.60;82.52
77216;BME280;66210;53.282;9.864;2023-04-08T09:49:37;102069.53;;;6.54;82.44
77216;BME280;66210;53.282;9.864;2023-04-08T09:52:20;102070.78;;;6.49;82.53
77216;BME280;66210;53.282;9.864;2023-04-08T09:55:03;102072.69;;;6.41;82.62
77216;BME280;66210;53.282;9.864;2023-04-08T09:57:42;102060.94;;;6.42;83.14
77216;BME280;66210;53.282;9.864;2023-04-08T10:00:14;102065.22;;;6.43;83.19
77216;BME280;66210;53.282;9.864;2023-04-08T10:02:54;102066.63;;;6.39;83.61
77216;BME280;66210;53.282;9.864;2023-04-08T10:05:24;102062.94;;;6.36;83.28
77216;BME280;66210;53.282;9.864;2023-04-08T10:07:52;102068.75;;;6.35;83.64
77216;BME280;66210;53.282;9.864;2023-04-08T10:10:21;102069.88;;;6.28;83.73
77216;BME280;66210;53.282;9.864;2023-04-08T10:12:48;102060.91;;;6.21;83.95
77216;BME280;66210;53.282;9.864;2023-04-08T10:17:55;102073.91;;;6.36;84.09
77216;BME280;66210;53.282;9.864;2023-04-08T10:20:46;102077.22;;;6.45;83.11
77216;BME280;66210;53.282;9.864;2023-04-08T10:23:16;102076.09;;;6.52;82.68
77216;BME280;66210;53.282;9.864;2023-04-08T10:30:42;102080.41;;;6.63;82.64
77216;BME280;66210;53.282;9.864;2023-04-08T10:33:15;102074.09;;;6.69;82.74
77216;BME280;66210;53.282;9.864;2023-04-08T10:35:59;102075.72;;;6.68;82.09
77216;BME280;66210;53.282;9.864;2023-04-08T10:38:26;102064.38;;;6.53;82.27
77216;BME280;66210;53.282;9.864;2023-04-08T10:40:53;102074.81;;;6.47;82.86
77216;BME280;66210;53.282;9.864;2023-04-08T10:43:20;102083.19;;;6.46;82.84
77216;BME280;66210;53.282;9.864;2023-04-08T10:45:47;102078.34;;;6.39;83.46
77216;BME280;66210;53.282;9.864;2023-04-08T10:48:21;102082.66;;;6.40;83.34
77216;BME280;66210;53.282;9.864;2023-04-08T10:50:59;102083.38;;;6.39;83.26
77216;BME280;66210;53.282;9.864;2023-04-08T10:53:31;102083.53;;;6.40;83.27
77216;BME280;66210;53.282;9.864;2023-04-08T10:56:07;102086.31;;;6.43;82.94
77216;BME280;66210;53.282;9.864;2023-04-08T10:58:34;102070.91;;;6.40;83.02
77216;BME280;66210;53.282;9.864;2023-04-08T11:01:03;102080.91;;;6.49;83.04
77216;BME280;66210;53.282;9.864;2023-04-08T11:03:32;102080.13;;;6.50;82.96
77216;BME280;66210;53.282;9.864;2023-04-08T11:06:01;102087.69;;;6.50;82.80
77216;BME280;66210;53.282;9.864;2023-04-08T11:08:30;102086.09;;;6.51;82.80
77216;BME280;66210;53.282;9.864;2023-04-08T11:11:01;102081.66;;;6.48;83.20
77216;BME280;66210;53.282;9.864;2023-04-08T11:13:28;102083.66;;;6.52;83.25
77216;BME280;66210;53.282;9.864;2023-04-08T11:15:56;102082.94;;;6.53;82.78
77216;BME280;66210;53.282;9.864;2023-04-08T11:18:24;102083.56;;;6.61;82.70
77216;BME280;66210;53.282;9.864;2023-04-08T11:20:51;102077.75;;;6.62;82.93
77216;BME280;66210;53.282;9.864;2023-04-08T11:23:18;102082.56;;;6.69;82.58
77216;BME280;66210;53.282;9.864;2023-04-08T11:25:46;102080.56;;;6.75;82.65
77216;BME280;66210;53.282;9.864;2023-04-08T11:28:13;102084.09;;;6.77;81.91
77216;BME280;66210;53.282;9.864;2023-04-08T11:30:40;102080.78;;;6.78;81.89
77216;BME280;66210;53.282;9.864;2023-04-08T11:33:07;102084.19;;;6.79;82.17
77216;BME280;66210;53.282;9.864;2023-04-08T11:35:39;102085.22;;;6.81;81.96
77216;BME280;66210;53.282;9.864;2023-04-08T11:38:07;102081.16;;;6.83;81.95
77216;BME280;66210;53.282;9.864;2023-04-08T11:40:34;102083.84;;;6.84;82.09
77216;BME280;66210;53.282;9.864;2023-04-08T11:43:09;102085.09;;;6.90;81.64
77216;BME280;66210;53.282;9.864;2023-04-08T11:45:38;102082.44;;;6.98;81.31
77216;BME280;66210;53.282;9.864;2023-04-08T11:48:10;102082.31;;;7.07;81.28
77216;BME280;66210;53.282;9.864;2023-04-08T11:50:37;102077.38;;;7.08;81.31
77216;BME280;66210;53.282;9.864;2023-04-08T11:53:15;102081.81;;;7.11;81.35
77216;BME280;66210;53.282;9.864;2023-04-08T11:55:43;102085.94;;;7.11;81.09
77216;BME280;66210;53.282;9.864;2023-04-08T11:58:10;102075.59;;;7.07;81.01
77216;BME280;66210;53.282;9.864;2023-04-08T12:00:37;102081.06;;;7.02;81.33
77216;BME280;66210;53.282;9.864;2023-04-08T12:03:06;102092.28;;;7.05;81.20
77216;BME280;66210;53.282;9.864;2023-04-08T12:05:33;102091.53;;;7.06;81.03
77216;BME280;66210;53.282;9.864;2023-04-08T12:07:59;102088.63;;;7.02;80.97
77216;BME280;66210;53.282;9.864;2023-04-08T12:10:27;102087.88;;;7.03;81.20
77216;BME280;66210;53.282;9.864;2023-04-08T12:12:54;102085.59;;;6.96;81.64
77216;BME280;66210;53.282;9.864;2023-04-08T12:15:20;102092.31;;;6.95;81.49
77216;BME280;66210;53.282;9.864;2023-04-08T12:17:47;102091.28;;;6.93;81.46
77216;BME280;66210;53.282;9.864;2023-04-08T12:20:14;102090.25;;;7.01;81.45
77216;BME280;66210;53.282;9.864;2023-04-08T12:22:42;102085.34;;;7.03;80.86
77216;BME280;66210;53.282;9.864;2023-04-08T12:25:09;102091.28;;;7.03;81.26
77216;BME280;66210;53.282;9.864;2023-04-08T12:27:36;102090.75;;;7.07;81.19
77216;BME280;66210;53.282;9.864;2023-04-08T12:30:03;102088.25;;;7.07;80.95
77216;BME280;66210;53.282;9.864;2023-04-08T12:32:31;102094.91;;;7.17;80.63
77216;BME280;66210;53.282;9.864;2023-04-08T12:34:59;102095.56;;;7.25;80.66
77216;BME280;66210;53.282;9.864;2023-04-08T12:37:25;102087.84;;;7.23;80.71
77216;BME280;66210;53.282;9.864;2023-04-08T12:39:53;102095.94;;;7.29;80.33
77216;BME280;66210;53.282;9.864;2023-04-08T12:42:20;102097.44;;;7.38;80.60
77216;BME280;66210;53.282;9.864;2023-04-08T12:44:46;102098.69;;;7.43;80.24
77216;BME280;66210;53.282;9.864;2023-04-08T12:47:13;102090.84;;;7.40;80.23
77216;BME280;66210;53.282;9.864;2023-04-08T12:49:40;102092.13;;;7.45;79.80
77216;BME280;66210;53.282;9.864;2023-04-08T12:52:09;102095.75;;;7.48;79.99
77216;BME280;66210;53.282;9.864;2023-04-08T12:54:36;102093.00;;;7.45;80.04
77216;BME280;66210;53.282;9.864;2023-04-08T12:57:03;102104.84;;;7.46;79.96
77216;BME280;66210;53.282;9.864;2023-04-08T12:59:30;102095.78;;;7.38;80.03
77216;BME280;66210;53.282;9.864;2023-04-08T13:01:58;102099.84;;;7.26;80.60
77216;BME280;66210;53.282;9.864;2023-04-08T13:04:25;102101.25;;;7.22;81.13
77216;BME280;66210;53.282;9.864;2023-04-08T13:06:52;102103.78;;;7.22;80.88
77216;BME280;66210;53.282;9.864;2023-04-08T13:09:19;102103.13;;;7.25;80.87
77216;BME280;66210;53.282;9.864;2023-04-08T13:11:46;102103.13;;;7.25;80.85
77216;BME280;66210;53.282;9.864;2023-04-08T13:14:12;102103.88;;;7.24;81.20
77216;BME280;66210;53.282;9.864;2023-04-08T13:16:40;102115.13;;;7.27;80.96
77216;BME280;66210;53.282;9.864;2023-04-08T13:19:06;102107.41;;;7.26;80.70
77216;BME280;66210;53.282;9.864;2023-04-08T13:21:33;102112.38;;;7.24;81.02
77216;BME280;66210;53.282;9.864;2023-04-08T13:24:00;102099.38;;;7.20;81.20